createdAt,value
2022-08-19T00:01:38.897Z,49.58
2022-08-19T00:04:07.942Z,49.48
2022-08-19T00:06:35.146Z,49.62
2022-08-19T00:09:05.723Z,49.29
2022-08-19T00:11:32.190Z,49.24
2022-08-19T00:13:58.587Z,49.46
2022-08-19T00:16:26.753Z,49.16
2022-08-19T00:18:54.627Z,49.19
2022-08-19T00:21:21.142Z,49.63
2022-08-19T00:23:47.891Z,49.37
2022-08-19T00:26:14.861Z,49.32
2022-08-19T00:28:41.452Z,49.42
2022-08-19T00:31:08.981Z,49.26
2022-08-19T00:33:35.945Z,49.46
2022-08-19T00:36:05.474Z,49.04
2022-08-19T00:38:37.289Z,49.18
2022-08-19T00:41:05.941Z,49.24
2022-08-19T00:43:41.710Z,48.94
2022-08-19T00:46:08.319Z,49.28
2022-08-19T00:48:35.099Z,49.12
2022-08-19T00:51:02.204Z,49.30
2022-08-19T00:53:29.603Z,49.34
2022-08-19T00:55:57.810Z,49.07
2022-08-19T00:58:27.184Z,49.18
2022-08-19T01:00:54.026Z,49.28
2022-08-19T01:03:21.149Z,49.08
2022-08-19T01:05:48.575Z,49.02
2022-08-19T01:08:16.211Z,49.41
2022-08-19T01:10:50.874Z,48.89
2022-08-19T01:13:19.795Z,49.20
2022-08-19T01:15:57.327Z,49.01
2022-08-19T01:18:24.531Z,48.85
2022-08-19T01:20:51.897Z,49.18
2022-08-19T01:23:19.305Z,49.05
2022-08-19T01:25:53.191Z,49.01
2022-08-19T01:28:34.327Z,49.22
2022-08-19T01:31:12.438Z,49.25
2022-08-19T01:33:55.467Z,48.88
2022-08-19T01:36:28.664Z,49.17
2022-08-19T01:38:55.123Z,48.98
2022-08-19T01:41:24.418Z,48.65
2022-08-19T01:44:13.731Z,48.98
2022-08-19T01:46:39.675Z,48.58
2022-08-19T01:49:09.124Z,49.00
2022-08-19T01:51:40.016Z,48.68
2022-08-19T01:54:07.628Z,48.89
2022-08-19T01:56:34.030Z,48.71
2022-08-19T01:59:10.083Z,48.96
2022-08-19T02:01:39.047Z,48.97
2022-08-19T02:04:06.691Z,49.07
2022-08-19T02:06:34.046Z,48.69
2022-08-19T02:09:00.702Z,48.78
2022-08-19T02:11:34.395Z,49.03
2022-08-19T02:14:07.742Z,49.10
2022-08-19T02:16:34.532Z,48.86
2022-08-19T02:19:03.906Z,48.65
2022-08-19T02:21:30.934Z,48.72
2022-08-19T02:23:57.392Z,48.88
2022-08-19T02:26:24.436Z,49.08
2022-08-19T02:28:50.801Z,48.87
2022-08-19T02:31:18.534Z,49.10
2022-08-19T02:33:45.548Z,48.91
2022-08-19T02:36:12.643Z,49.16
2022-08-19T02:38:39.574Z,49.02
2022-08-19T02:41:08.128Z,48.70
2022-08-19T02:43:37.940Z,48.88
2022-08-19T02:46:21.690Z,49.07
2022-08-19T02:48:49.682Z,48.89
2022-08-19T02:51:22.590Z,49.00
2022-08-19T02:53:48.978Z,49.01
2022-08-19T02:56:15.956Z,48.77
2022-08-19T02:58:43.956Z,49.08
2022-08-19T03:01:11.298Z,49.01
2022-08-19T03:03:38.239Z,48.94
2022-08-19T03:06:09.227Z,48.93
2022-08-19T03:08:36.073Z,49.19
2022-08-19T03:11:02.720Z,49.00
2022-08-19T03:13:29.229Z,49.01
2022-08-19T03:15:55.739Z,48.96
2022-08-19T03:18:23.274Z,49.04
2022-08-19T03:20:50.604Z,48.98
2022-08-19T03:23:17.759Z,49.18
2022-08-19T03:25:46.341Z,49.43
2022-08-19T03:28:13.752Z,48.88
2022-08-19T03:30:41.805Z,49.11
2022-08-19T03:33:10.580Z,49.12
2022-08-19T03:35:45.998Z,49.39
2022-08-19T03:38:12.354Z,49.60
2022-08-19T03:40:38.727Z,49.45
2022-08-19T03:43:05.952Z,49.13
2022-08-19T03:45:32.308Z,49.39
2022-08-19T03:47:58.695Z,49.44
2022-08-19T03:50:25.311Z,49.22
2022-08-19T03:52:52.586Z,49.03
2022-08-19T03:55:19.751Z,49.39
2022-08-19T03:57:46.776Z,49.16
2022-08-19T04:00:14.187Z,49.35
2022-08-19T04:02:41.611Z,49.28
2022-08-19T04:05:09.153Z,49.54
2022-08-19T04:07:35.613Z,49.11
2022-08-19T04:10:02.024Z,49.57
2022-08-19T04:12:29.073Z,49.40
2022-08-19T04:14:55.460Z,49.18
2022-08-19T04:17:23.247Z,49.33
2022-08-19T04:19:49.671Z,49.49
2022-08-19T04:22:16.427Z,49.46
2022-08-19T04:24:42.836Z,49.27
2022-08-19T04:27:09.225Z,49.35
2022-08-19T04:29:35.703Z,49.50
2022-08-19T04:32:08.573Z,49.31
2022-08-19T04:34:35.331Z,49.50
2022-08-19T04:37:01.714Z,49.07
2022-08-19T04:39:48.235Z,49.39
2022-08-19T04:42:34.390Z,49.33
2022-08-19T04:45:00.823Z,49.17
2022-08-19T04:47:48.091Z,49.11
2022-08-19T04:50:14.442Z,49.14
2022-08-19T04:52:43.613Z,49.36
2022-08-19T04:55:11.262Z,49.38
2022-08-19T04:57:41.005Z,49.58
2022-08-19T05:00:08.707Z,49.06
2022-08-19T05:02:35.196Z,49.49
2022-08-19T05:05:04.519Z,49.09
2022-08-19T05:07:31.768Z,49.42
2022-08-19T05:09:59.186Z,49.08
2022-08-19T05:12:28.769Z,49.27
2022-08-19T05:14:57.614Z,49.43
2022-08-19T05:17:29.009Z,49.01
2022-08-19T05:20:15.916Z,49.30
2022-08-19T05:22:44.854Z,49.27
2022-08-19T05:25:14.206Z,49.19
2022-08-19T05:27:41.833Z,49.27
2022-08-19T05:30:08.819Z,49.23
2022-08-19T05:32:35.416Z,49.38
2022-08-19T05:35:02.036Z,49.01
2022-08-19T05:37:28.618Z,48.78
2022-08-19T05:39:55.704Z,49.19
2022-08-19T05:42:23.675Z,48.98
2022-08-19T05:44:50.543Z,49.17
2022-08-19T05:47:17.495Z,49.17
2022-08-19T05:49:44.780Z,49.01
2022-08-19T05:52:12.352Z,48.71
2022-08-19T05:54:41.266Z,48.66
2022-08-19T05:57:07.995Z,48.74
2022-08-19T05:59:39.187Z,48.60
2022-08-19T06:02:06.311Z,49.02
2022-08-19T06:04:32.983Z,48.82
2022-08-19T06:07:12.242Z,48.84
2022-08-19T06:09:49.097Z,48.68
2022-08-19T06:12:29.711Z,49.03
2022-08-19T06:15:01.251Z,48.70
2022-08-19T06:17:28.304Z,48.90
2022-08-19T06:19:54.721Z,49.13
2022-08-19T06:22:21.155Z,49.21
2022-08-19T06:24:47.640Z,49.06
2022-08-19T06:27:14.204Z,49.02
2022-08-19T06:29:40.559Z,48.99
2022-08-19T06:32:07.061Z,49.10
2022-08-19T06:34:35.044Z,49.07
2022-08-19T06:37:02.224Z,48.88
2022-08-19T06:39:30.086Z,48.79
2022-08-19T06:41:58.951Z,48.86
2022-08-19T06:44:35.225Z,49.05
2022-08-19T06:47:09.436Z,49.13
2022-08-19T06:49:40.994Z,48.72
2022-08-19T06:52:08.570Z,48.80
2022-08-19T06:54:37.646Z,48.96
2022-08-19T06:57:15.934Z,48.78
2022-08-19T06:59:42.797Z,49.17
2022-08-19T07:02:09.555Z,49.02
2022-08-19T07:04:36.691Z,48.78
2022-08-19T07:07:19.968Z,49.21
2022-08-19T07:09:57.097Z,49.00
2022-08-19T07:12:27.025Z,48.86
2022-08-19T07:14:54.592Z,48.95
2022-08-19T07:17:21.119Z,48.79
2022-08-19T07:19:48.185Z,48.80
2022-08-19T07:22:15.875Z,49.02
2022-08-19T07:24:51.457Z,49.16
2022-08-19T07:27:24.687Z,48.77
2022-08-19T07:29:56.192Z,49.00
2022-08-19T07:32:24.485Z,48.98
2022-08-19T07:34:51.959Z,48.76
2022-08-19T07:37:20.944Z,49.02
2022-08-19T07:39:47.687Z,48.81
2022-08-19T07:42:14.714Z,48.99
2022-08-19T07:44:42.342Z,48.84
2022-08-19T07:47:50.060Z,49.19
2022-08-19T07:50:05.676Z,48.87
2022-08-19T07:52:35.113Z,49.10
2022-08-19T07:55:05.721Z,49.23
2022-08-19T07:57:32.192Z,48.82
2022-08-19T08:00:01.936Z,48.90
2022-08-19T08:02:42.398Z,49.12
2022-08-19T08:05:27.992Z,49.02
2022-08-19T08:08:13.079Z,49.02
2022-08-19T08:10:39.515Z,49.19
2022-08-19T08:13:10.078Z,49.01
2022-08-19T08:15:42.756Z,49.02
2022-08-19T08:18:10.112Z,48.91
2022-08-19T08:20:36.499Z,48.91
2022-08-19T08:23:22.015Z,49.10
2022-08-19T08:25:49.814Z,49.08
2022-08-19T08:28:17.561Z,48.74
2022-08-19T08:30:45.327Z,49.02
2022-08-19T08:33:12.056Z,48.85
2022-08-19T08:35:38.534Z,48.94
2022-08-19T08:38:05.255Z,48.99
2022-08-19T08:40:38.815Z,49.09
2022-08-19T08:43:11.153Z,48.68
2022-08-19T08:45:42.714Z,48.91
2022-08-19T08:48:22.386Z,48.85
2022-08-19T08:50:53.711Z,49.16
2022-08-19T08:53:29.139Z,48.98
2022-08-19T08:55:58.738Z,48.81
2022-08-19T08:58:30.178Z,49.06
2022-08-19T09:00:58.283Z,48.96
2022-08-19T09:03:27.519Z,48.86
2022-08-19T09:06:03.744Z,48.80
2022-08-19T09:08:41.308Z,49.13
2022-08-19T09:11:42.844Z,48.74
2022-08-19T09:14:07.864Z,48.87
2022-08-19T09:16:35.275Z,48.75
2022-08-19T09:19:06.539Z,48.82
2022-08-19T09:21:34.352Z,49.08
2022-08-19T09:24:03.292Z,49.03
2022-08-19T09:26:47.415Z,48.79
2022-08-19T09:29:17.736Z,48.74
2022-08-19T09:31:44.385Z,48.63
2022-08-19T09:34:20.970Z,48.59
2022-08-19T09:36:50.412Z,48.91
2022-08-19T09:39:17.748Z,48.80
2022-08-19T09:41:47.669Z,48.90
2022-08-19T09:44:15.766Z,48.83
2022-08-19T09:46:42.215Z,48.71
2022-08-19T09:49:08.586Z,48.34
2022-08-19T09:51:35.194Z,48.69
2022-08-19T09:54:04.809Z,48.41
2022-08-19T09:56:31.965Z,48.47
2022-08-19T09:58:59.381Z,48.39
2022-08-19T10:01:26.665Z,48.59
2022-08-19T10:03:54.864Z,48.72
2022-08-19T10:06:46.159Z,48.68
2022-08-19T10:09:11.819Z,48.38
2022-08-19T10:11:46.993Z,48.36
2022-08-19T10:14:22.961Z,48.32
2022-08-19T10:16:50.342Z,48.26
2022-08-19T10:19:16.848Z,48.31
2022-08-19T10:21:52.179Z,48.41
2022-08-19T10:24:21.022Z,48.27
2022-08-19T10:26:49.115Z,48.33
2022-08-19T10:29:32.875Z,48.20
2022-08-19T10:32:04.170Z,48.30
2022-08-19T10:34:31.598Z,48.03
2022-08-19T10:37:01.112Z,48.08
2022-08-19T10:39:32.932Z,48.20
2022-08-19T10:42:07.796Z,48.57
2022-08-19T10:44:36.288Z,48.49
2022-08-19T10:47:03.898Z,48.49
2022-08-19T10:50:09.071Z,48.48
2022-08-19T10:52:39.111Z,48.42
2022-08-19T10:55:25.367Z,47.99
2022-08-19T10:58:03.078Z,48.13
2022-08-19T11:00:31.894Z,48.16
2022-08-19T11:02:58.435Z,48.26
2022-08-19T11:05:24.832Z,47.82
2022-08-19T11:07:52.753Z,48.15
2022-08-19T11:10:21.758Z,48.05
2022-08-19T11:12:49.035Z,47.90
2022-08-19T11:15:15.452Z,47.72
2022-08-19T11:17:42.473Z,47.72
2022-08-19T11:20:09.853Z,47.73
2022-08-19T11:22:41.582Z,47.79
2022-08-19T11:25:09.288Z,47.67
2022-08-19T11:27:38.343Z,47.73
2022-08-19T11:30:05.076Z,48.14
2022-08-19T11:32:35.326Z,47.93
2022-08-19T11:35:01.960Z,48.06
2022-08-19T11:37:28.382Z,47.88
2022-08-19T11:39:54.950Z,47.85
2022-08-19T11:42:40.002Z,47.78
2022-08-19T11:45:06.867Z,47.79
2022-08-19T11:47:33.978Z,47.73
2022-08-19T11:50:00.523Z,47.68
2022-08-19T11:52:27.584Z,47.67
2022-08-19T11:54:54.028Z,48.00
2022-08-19T11:57:20.808Z,47.66
2022-08-19T11:59:57.044Z,47.71
2022-08-19T12:02:24.243Z,47.66
2022-08-19T12:04:50.667Z,47.64
2022-08-19T12:07:17.084Z,47.68
2022-08-19T12:09:43.681Z,47.54
2022-08-19T12:12:12.587Z,47.75
2022-08-19T12:14:39.278Z,47.53
2022-08-19T12:17:08.312Z,47.67
2022-08-19T12:19:37.034Z,47.51
2022-08-19T12:22:04.257Z,47.89
2022-08-19T12:24:33.644Z,47.81
2022-08-19T12:27:03.186Z,47.67
2022-08-19T12:29:30.627Z,47.81
2022-08-19T12:32:03.840Z,47.56
2022-08-19T12:34:31.078Z,47.42
2022-08-19T12:36:58.412Z,47.81
2022-08-19T12:39:25.449Z,47.81
2022-08-19T12:41:54.942Z,47.65
2022-08-19T12:44:28.873Z,47.58
2022-08-19T12:46:58.616Z,47.59
2022-08-19T12:49:53.760Z,47.72
2022-08-19T12:52:16.155Z,47.61
2022-08-19T12:54:46.568Z,47.79
2022-08-19T12:57:13.274Z,47.46
2022-08-19T12:59:40.762Z,47.59
2022-08-19T13:02:10.236Z,47.41
2022-08-19T13:04:38.803Z,47.43
2022-08-19T13:07:05.130Z,47.48
2022-08-19T13:09:31.526Z,47.53
2022-08-19T13:11:57.895Z,47.65
2022-08-19T13:14:24.250Z,47.59
2022-08-19T13:16:53.391Z,47.47
2022-08-19T13:19:21.948Z,47.50
2022-08-19T13:21:50.340Z,47.55
2022-08-19T13:24:16.969Z,47.58
2022-08-19T13:26:44.259Z,47.55
2022-08-19T13:29:29.491Z,47.67
2022-08-19T13:32:18.605Z,47.79
2022-08-19T13:34:47.525Z,47.88
2022-08-19T13:37:13.929Z,47.86
2022-08-19T13:39:43.811Z,47.87
2022-08-19T13:42:11.542Z,47.93
2022-08-19T13:44:37.995Z,48.21
2022-08-19T13:47:07.724Z,47.73
2022-08-19T13:49:36.782Z,48.11
2022-08-19T13:52:04.494Z,47.95
2022-08-19T13:54:30.995Z,48.13
2022-08-19T13:56:57.409Z,48.30
2022-08-19T13:59:23.812Z,48.13
2022-08-19T14:01:50.921Z,48.05
2022-08-19T14:04:17.404Z,48.12
2022-08-19T14:06:43.782Z,48.38
2022-08-19T14:09:10.242Z,48.36
2022-08-19T14:11:36.603Z,48.40
2022-08-19T14:14:02.971Z,48.42
2022-08-19T14:16:31.266Z,48.11
2022-08-19T14:18:57.630Z,48.46
2022-08-19T14:21:25.990Z,49.30
2022-08-19T14:23:52.720Z,49.12
2022-08-19T14:26:20.037Z,49.04
2022-08-19T14:28:46.791Z,49.00
2022-08-19T14:31:17.550Z,49.18
2022-08-19T14:33:43.953Z,49.29
2022-08-19T14:36:10.397Z,49.54
2022-08-19T14:38:37.468Z,49.21
2022-08-19T14:41:17.640Z,49.12
2022-08-19T14:43:47.235Z,49.04
2022-08-19T14:46:17.973Z,49.18
2022-08-19T14:48:44.459Z,49.03
2022-08-19T14:51:10.976Z,49.37
2022-08-19T14:53:37.715Z,48.98
2022-08-19T14:56:08.652Z,49.20
2022-08-19T14:58:39.165Z,49.71
2022-08-19T15:01:05.934Z,48.86
2022-08-19T15:03:33.000Z,49.17
2022-08-19T15:06:01.463Z,49.02
2022-08-19T15:08:28.533Z,49.01
2022-08-19T15:10:55.445Z,48.78
2022-08-19T15:13:22.233Z,48.65
2022-08-19T15:15:48.793Z,48.56
2022-08-19T15:18:15.616Z,48.93
2022-08-19T15:20:42.223Z,48.84
2022-08-19T15:23:08.641Z,49.20
2022-08-19T15:25:35.334Z,49.09
2022-08-19T15:28:01.758Z,49.35
2022-08-19T15:30:29.071Z,49.30
2022-08-19T15:32:56.886Z,49.74
2022-08-19T15:35:23.630Z,49.74
2022-08-19T15:37:51.053Z,49.60
2022-08-19T15:40:18.022Z,49.63
2022-08-19T15:42:44.633Z,49.55
2022-08-19T15:45:12.487Z,49.09
2022-08-19T15:47:39.312Z,49.37
2022-08-19T15:50:10.761Z,49.27
2022-08-19T15:52:48.351Z,49.32
2022-08-19T15:55:33.751Z,49.28
2022-08-19T15:58:28.211Z,49.14
2022-08-19T16:01:23.584Z,49.43
2022-08-19T16:04:14.097Z,49.07
2022-08-19T16:06:45.959Z,49.11
2022-08-19T16:09:13.086Z,49.31
2022-08-19T16:11:39.881Z,49.42
2022-08-19T16:14:11.794Z,49.36
2022-08-19T16:16:38.354Z,49.31
2022-08-19T16:19:10.275Z,49.37
2022-08-19T16:21:41.862Z,49.46
2022-08-19T16:24:10.182Z,49.41
2022-08-19T16:26:43.498Z,49.72
2022-08-19T16:29:12.175Z,49.42
2022-08-19T16:31:43.876Z,49.85
2022-08-19T16:34:13.773Z,49.65
2022-08-19T16:36:46.388Z,49.64
2022-08-19T16:39:19.507Z,49.66
2022-08-19T16:41:49.578Z,49.61
2022-08-19T16:47:36.416Z,49.55
2022-08-19T16:54:02.656Z,50.01
2022-08-19T17:03:20.275Z,50.77
2022-08-19T17:06:15.811Z,50.67
2022-08-19T17:09:27.563Z,50.68
2022-08-19T17:37:38.328Z,52.25
2022-08-19T17:40:14.714Z,52.60
2022-08-19T17:42:46.201Z,52.55
2022-08-19T17:45:14.180Z,52.54
2022-08-19T17:47:41.261Z,52.85
2022-08-19T17:50:09.550Z,53.22
2022-08-19T17:52:37.346Z,53.17
2022-08-19T17:55:04.284Z,53.18
2022-08-19T17:57:30.749Z,53.46
2022-08-19T17:59:58.545Z,53.32
2022-08-19T18:02:25.974Z,53.45
2022-08-19T18:04:52.344Z,53.81
2022-08-19T18:07:21.567Z,53.74
2022-08-19T18:09:51.768Z,54.04
2022-08-19T18:12:24.557Z,53.97
2022-08-19T18:14:51.034Z,54.27
2022-08-19T18:17:19.146Z,54.80
2022-08-19T18:19:47.160Z,54.23
2022-08-19T18:22:22.511Z,54.21
2022-08-19T18:24:49.110Z,54.80
2022-08-19T18:27:15.528Z,54.73
2022-08-19T18:29:41.933Z,54.96
2022-08-19T18:32:12.804Z,54.52
2022-08-19T18:34:39.834Z,54.87
2022-08-19T18:37:06.301Z,54.85
2022-08-19T18:39:51.451Z,54.93
2022-08-19T18:42:36.601Z,55.05
2022-08-19T18:45:22.965Z,54.90
2022-08-19T18:48:07.941Z,55.41
2022-08-19T18:50:53.531Z,55.21
2022-08-19T18:53:19.947Z,55.30
2022-08-19T18:55:49.433Z,55.04
2022-08-19T18:58:15.835Z,55.28
2022-08-19T19:00:43.891Z,55.58
2022-08-19T19:03:11.591Z,55.52
2022-08-19T19:05:42.309Z,55.34
2022-08-19T19:08:09.156Z,55.38
2022-08-19T19:10:36.186Z,55.72
2022-08-19T19:13:02.617Z,55.75
2022-08-19T19:15:29.441Z,55.83
2022-08-19T19:17:59.214Z,55.77
2022-08-19T19:20:35.265Z,55.60
2022-08-19T19:23:03.252Z,55.91
2022-08-19T19:25:50.015Z,55.65
2022-08-19T19:28:16.303Z,55.72
2022-08-19T19:30:42.831Z,55.76
2022-08-19T19:33:09.205Z,55.50
2022-08-19T19:35:35.636Z,55.73
2022-08-19T19:38:02.001Z,56.01
2022-08-19T19:40:28.625Z,55.74
2022-08-19T19:42:55.607Z,55.82
2022-08-19T19:45:23.274Z,55.63
2022-08-19T19:47:50.051Z,55.69
2022-08-19T19:50:17.304Z,55.88
2022-08-19T19:52:45.635Z,55.95
2022-08-19T19:55:17.985Z,55.66
2022-08-19T19:57:45.516Z,55.61
2022-08-19T20:00:15.044Z,55.75
2022-08-19T20:02:46.667Z,55.78
2022-08-19T20:05:16.169Z,55.67
2022-08-19T20:08:01.391Z,55.72
2022-08-19T20:10:27.916Z,55.62
2022-08-19T20:12:54.858Z,55.68
2022-08-19T20:15:22.093Z,55.41
2022-08-19T20:17:48.480Z,55.75
2022-08-19T20:20:16.259Z,55.41
2022-08-19T20:22:43.650Z,55.48
2022-08-19T20:25:11.417Z,55.47
2022-08-19T20:27:39.883Z,55.79
2022-08-19T20:30:08.016Z,55.50
2022-08-19T20:32:42.588Z,55.56
2022-08-19T20:35:16.714Z,55.52
2022-08-19T20:37:43.094Z,55.67
2022-08-19T20:40:10.108Z,55.20
2022-08-19T20:42:40.204Z,55.55
2022-08-19T20:45:21.556Z,55.44
2022-08-19T20:48:02.475Z,55.50
2022-08-19T20:50:30.131Z,55.20
2022-08-19T20:52:57.079Z,55.30
2022-08-19T20:55:23.426Z,55.14
2022-08-19T20:57:49.817Z,55.48
2022-08-19T21:00:16.294Z,55.01
2022-08-19T21:02:42.692Z,55.10
2022-08-19T21:05:09.062Z,55.33
2022-08-19T21:07:38.947Z,55.10
2022-08-19T21:10:06.772Z,55.33
2022-08-19T21:12:33.191Z,55.11
2022-08-19T21:14:59.617Z,55.15
2022-08-19T21:17:25.990Z,55.28
2022-08-19T21:19:52.378Z,55.17
2022-08-19T21:22:18.725Z,55.01
2022-08-19T21:24:45.135Z,55.29
2022-08-19T21:27:11.584Z,55.19
2022-08-19T21:29:40.081Z,54.98
2022-08-19T21:32:06.847Z,55.00
2022-08-19T21:34:33.225Z,54.64
2022-08-19T21:36:59.614Z,54.95
2022-08-19T21:39:25.999Z,54.74
2022-08-19T21:41:52.388Z,54.78
2022-08-19T21:44:18.787Z,54.99
2022-08-19T21:46:45.347Z,55.13
2022-08-19T21:49:16.967Z,54.87
2022-08-19T21:51:43.303Z,55.08
2022-08-19T21:54:14.099Z,54.72
2022-08-19T21:56:41.163Z,55.01
2022-08-19T21:59:07.737Z,54.85
2022-08-19T22:01:34.123Z,54.80
2022-08-19T22:04:00.464Z,55.01
2022-08-19T22:06:26.838Z,55.12
2022-08-19T22:08:56.260Z,55.14
2022-08-19T22:11:23.307Z,55.16
2022-08-19T22:13:53.675Z,55.26
2022-08-19T22:16:20.839Z,55.03
2022-08-19T22:18:47.659Z,55.06
2022-08-19T22:21:14.471Z,54.82
2022-08-19T22:23:41.706Z,54.90
2022-08-19T22:26:08.432Z,54.97
2022-08-19T22:28:34.773Z,54.80
2022-08-19T22:31:02.476Z,54.97
2022-08-19T22:33:30.049Z,55.02
2022-08-19T22:35:56.446Z,54.84
2022-08-19T22:38:22.912Z,55.13
2022-08-19T22:40:50.671Z,54.71
2022-08-19T22:43:25.413Z,54.70
2022-08-19T22:45:53.087Z,54.90
2022-08-19T22:48:20.207Z,54.98
2022-08-19T22:51:07.389Z,55.17
2022-08-19T22:53:34.749Z,54.99
2022-08-19T22:56:01.279Z,55.21
2022-08-19T22:58:27.841Z,55.15
2022-08-19T23:00:54.776Z,54.89
2022-08-19T23:03:21.161Z,55.15
2022-08-19T23:05:47.604Z,55.12
2022-08-19T23:08:17.401Z,55.03
2022-08-19T23:10:44.007Z,55.01
2022-08-19T23:13:10.532Z,55.28
2022-08-19T23:15:36.889Z,55.18
2022-08-19T23:18:04.322Z,54.90
2022-08-19T23:20:32.879Z,55.15
2022-08-19T23:23:01.362Z,54.82
2022-08-19T23:25:28.788Z,54.89
2022-08-19T23:28:13.878Z,54.89
2022-08-19T23:30:43.539Z,55.25
2022-08-19T23:33:21.398Z,55.00
2022-08-19T23:35:48.182Z,55.05
2022-08-19T23:38:14.547Z,54.93
2022-08-19T23:40:40.903Z,55.23
2022-08-19T23:43:07.998Z,54.82
2022-08-19T23:45:38.119Z,54.77
2022-08-19T23:48:05.762Z,55.25
2022-08-19T23:50:32.520Z,54.80
2022-08-19T23:52:59.404Z,55.07
2022-08-19T23:55:27.896Z,55.08
2022-08-19T23:57:54.412Z,55.09
